Twin Groves, Arkansas
Current Conditions -  °F | °C
As of 7:58 AM on Thursday 23 Oct 2014 (Local Time) from KLRF Reporting Station
Broken Clouds Broken Clouds  
Wind Chill: 46°   Ceiling: 20000
Heat Index: 46°   Visibility: 10mi
Dew Point: 44°   Wind: 0mph
Humidity: 92%   Direction: NA
Pressure: 30.2"   Gusts: NA
Location:  35.3032°N, 92.4407°W
Report Text: KLRF 231258Z AUTO 00000KT 10SM BKN200 08/07 A3020 RMK AO2 SLP230 T00780065
Loading
Personal Weather Stations






























Interactive Weather Map
Tropical Storm Tracking
New forecast layout! Learn more

10-Day Weather Forecast

Advertisements
Track Severe Weather on mobile